createdAt,value
2018-08-25T00:01:55.005Z,4.07
2018-08-25T00:04:25.085Z,4.40
2018-08-25T00:07:08.303Z,2.40
2018-08-25T00:13:07.919Z,3.10
2018-08-25T00:15:39.208Z,3.33
2018-08-25T00:18:09.623Z,3.73
2018-08-25T00:20:37.937Z,3.13
2018-08-25T00:23:07.532Z,3.20
2018-08-25T00:25:36.247Z,3.67
2018-08-25T00:28:05.054Z,3.07
2018-08-25T00:30:39.070Z,3.50
2018-08-25T00:33:07.430Z,4.10
2018-08-25T00:35:36.536Z,5.10
2018-08-25T00:38:06.063Z,6.20
2018-08-25T00:40:35.533Z,3.67
2018-08-25T00:43:06.148Z,4.93
2018-08-25T00:45:36.469Z,2.73
2018-08-25T00:48:06.566Z,4.10
2018-08-25T00:50:34.725Z,2.87
2018-08-25T00:53:03.590Z,3.23
2018-08-25T00:55:32.333Z,4.20
2018-08-25T00:58:00.736Z,2.40
2018-08-25T01:00:30.112Z,3.80
2018-08-25T01:02:59.888Z,4.37
2018-08-25T01:05:28.844Z,6.77
2018-08-25T01:07:58.625Z,2.20
2018-08-25T01:10:27.625Z,5.87
2018-08-25T01:12:56.528Z,3.87
2018-08-25T01:15:26.983Z,4.37
2018-08-25T01:17:57.993Z,4.87
2018-08-25T01:20:27.133Z,6.23
2018-08-25T01:22:57.728Z,3.33
2018-08-25T01:25:29.857Z,5.90
2018-08-25T01:27:58.167Z,3.67
2018-08-25T01:30:26.990Z,4.53
2018-08-25T01:32:57.433Z,4.83
2018-08-25T01:35:27.650Z,2.30
2018-08-25T01:37:57.860Z,4.53
2018-08-25T01:40:27.152Z,4.23
2018-08-25T01:42:56.784Z,4.73
2018-08-25T01:45:32.114Z,4.07
2018-08-25T01:48:01.285Z,7.83
2018-08-25T01:50:29.667Z,6.30
2018-08-25T01:53:09.853Z,5.97
2018-08-25T01:55:50.007Z,8.10
2018-08-25T01:58:28.618Z,6.07
2018-08-25T02:00:56.806Z,4.77
2018-08-25T02:03:26.379Z,5.30
2018-08-25T02:05:57.838Z,4.60
2018-08-25T02:08:27.360Z,3.33
2018-08-25T02:10:56.133Z,5.43
2018-08-25T02:13:25.906Z,4.33
2018-08-25T02:15:54.801Z,3.83
2018-08-25T02:18:24.258Z,4.57
2018-08-25T02:20:53.569Z,3.37
2018-08-25T02:23:23.195Z,5.37
2018-08-25T02:25:52.103Z,4.50
2018-08-25T02:28:20.557Z,5.57
2018-08-25T02:30:49.013Z,3.17
2018-08-25T02:33:18.945Z,6.43
2018-08-25T02:35:48.541Z,5.33
2018-08-25T02:38:19.205Z,2.77
2018-08-25T02:40:47.948Z,4.47
2018-08-25T02:43:16.283Z,4.20
2018-08-25T02:45:44.366Z,2.73
2018-08-25T02:48:40.561Z,3.80
2018-08-25T02:51:10.762Z,3.73
2018-08-25T02:53:39.044Z,3.47
2018-08-25T02:56:09.028Z,4.10
2018-08-25T02:58:38.825Z,5.47
2018-08-25T03:01:08.215Z,2.97
2018-08-25T03:03:36.896Z,4.70
2018-08-25T03:06:07.046Z,5.93
2018-08-25T03:08:35.449Z,6.90
2018-08-25T03:11:04.687Z,5.13
2018-08-25T03:13:33.658Z,2.90
2018-08-25T03:16:02.611Z,4.73
2018-08-25T03:18:31.815Z,3.77
2018-08-25T03:21:01.308Z,6.33
2018-08-25T03:23:30.311Z,6.00
2018-08-25T03:26:00.419Z,4.77
2018-08-25T03:28:32.144Z,4.53
2018-08-25T03:31:00.776Z,3.00
2018-08-25T03:33:29.496Z,4.80
2018-08-25T03:35:58.125Z,3.30
2018-08-25T03:38:26.713Z,6.03
2018-08-25T03:40:56.229Z,6.07
2018-08-25T03:43:24.610Z,3.37
2018-08-25T03:48:33.258Z,4.17
2018-08-25T03:51:05.521Z,3.30
2018-08-25T03:53:35.648Z,4.73
2018-08-25T03:56:04.741Z,8.00
2018-08-25T03:58:35.386Z,5.73
2018-08-25T04:01:06.742Z,4.13
2018-08-25T04:03:35.384Z,2.70
2018-08-25T04:06:04.223Z,4.10
2018-08-25T04:08:34.640Z,3.67
2018-08-25T04:11:03.114Z,3.90
2018-08-25T04:13:32.295Z,5.03
2018-08-25T04:16:02.786Z,5.43
2018-08-25T04:18:31.119Z,4.27
2018-08-25T04:21:00.018Z,2.73
2018-08-25T04:23:39.597Z,8.67
2018-08-25T04:26:08.885Z,3.33
2018-08-25T04:28:38.899Z,3.53
2018-08-25T04:31:07.862Z,6.00
2018-08-25T04:33:37.011Z,7.47
2018-08-25T04:36:05.665Z,3.37
2018-08-25T04:38:34.989Z,4.87
2018-08-25T04:41:04.054Z,4.63
2018-08-25T04:43:33.417Z,3.80
2018-08-25T04:46:03.191Z,4.67
2018-08-25T04:48:32.400Z,4.43
2018-08-25T04:51:00.854Z,6.60
2018-08-25T04:53:29.418Z,6.23
2018-08-25T04:55:58.356Z,5.17
2018-08-25T04:58:30.427Z,5.10
2018-08-25T05:00:58.704Z,5.00
2018-08-25T05:03:27.237Z,4.80
2018-08-25T05:05:55.726Z,5.80
2018-08-25T05:08:24.709Z,6.20
2018-08-25T05:10:53.613Z,4.30
2018-08-25T05:13:23.327Z,6.30
2018-08-25T05:15:54.290Z,6.10
2018-08-25T05:18:23.378Z,4.20
2018-08-25T05:20:51.507Z,5.17
2018-08-25T05:23:20.833Z,4.53
2018-08-25T05:25:50.480Z,6.53
2018-08-25T05:28:20.525Z,4.93
2018-08-25T05:30:50.157Z,6.33
2018-08-25T05:33:19.676Z,6.47
2018-08-25T05:35:50.853Z,4.70
2018-08-25T05:38:21.217Z,4.83
2018-08-25T05:40:50.373Z,6.67
2018-08-25T05:43:19.047Z,7.50
2018-08-25T05:45:48.411Z,4.60
2018-08-25T05:48:22.133Z,4.97
2018-08-25T05:50:52.415Z,5.30
2018-08-25T05:53:21.600Z,8.70
2018-08-25T05:56:01.590Z,4.37
2018-08-25T05:58:31.137Z,8.37
2018-08-25T06:01:01.829Z,7.53
2018-08-25T06:03:32.225Z,5.63
2018-08-25T06:06:00.840Z,7.10
2018-08-25T06:08:32.640Z,8.63
2018-08-25T06:11:01.857Z,9.17
2018-08-25T06:13:37.063Z,8.27
2018-08-25T06:16:15.494Z,4.80
2018-08-25T06:18:44.983Z,6.00
2018-08-25T06:21:15.062Z,10.40
2018-08-25T06:23:44.458Z,6.00
2018-08-25T06:26:15.697Z,7.70
2018-08-25T06:28:45.885Z,10.13
2018-08-25T06:31:16.157Z,8.63
2018-08-25T06:34:13.415Z,7.93
2018-08-25T06:37:12.226Z,4.50
2018-08-25T06:39:53.676Z,5.63
2018-08-25T06:46:12.568Z,8.77
2018-08-25T06:48:48.302Z,9.63
2018-08-25T06:51:32.416Z,6.37
2018-08-25T06:54:17.471Z,7.93
2018-08-25T06:56:46.227Z,7.83
2018-08-25T06:59:16.839Z,5.70
2018-08-25T07:01:46.401Z,6.73
2018-08-25T07:04:14.957Z,4.70
2018-08-25T07:06:44.104Z,6.80
2018-08-25T07:09:13.481Z,6.20
2018-08-25T07:11:50.397Z,6.87
2018-08-25T07:14:22.106Z,4.60
2018-08-25T07:16:51.264Z,6.47
2018-08-25T07:19:20.768Z,14.87
2018-08-25T07:21:50.619Z,7.87
2018-08-25T07:24:21.421Z,5.27
2018-08-25T07:27:01.491Z,5.70
2018-08-25T07:29:31.201Z,7.43
2018-08-25T07:32:04.195Z,11.50
2018-08-25T07:34:34.874Z,5.53
2018-08-25T07:37:04.542Z,4.53
2018-08-25T07:39:34.227Z,7.17
2018-08-25T07:42:03.912Z,5.33
2018-08-25T07:44:52.089Z,7.07
2018-08-25T07:47:23.186Z,6.27
2018-08-25T07:49:51.952Z,6.33
2018-08-25T07:52:26.434Z,11.07
2018-08-25T07:54:57.802Z,7.77
2018-08-25T07:57:26.701Z,7.63
2018-08-25T07:59:57.136Z,9.87
2018-08-25T08:02:27.062Z,6.90
2018-08-25T08:11:43.828Z,6.93
2018-08-25T08:14:13.139Z,5.77
2018-08-25T08:16:43.061Z,6.63
2018-08-25T08:19:13.398Z,5.73
2018-08-25T08:21:56.461Z,6.00
2018-08-25T08:24:25.416Z,7.10
2018-08-25T08:26:58.812Z,10.93
2018-08-25T08:29:34.989Z,5.93
2018-08-25T08:32:05.770Z,5.93
2018-08-25T08:34:40.899Z,9.10
2018-08-25T08:37:10.164Z,7.10
2018-08-25T08:39:40.795Z,6.53
2018-08-25T08:42:09.131Z,6.03
2018-08-25T08:44:39.134Z,5.83
2018-08-25T08:47:10.505Z,6.20
2018-08-25T08:49:46.975Z,7.50
2018-08-25T08:52:17.238Z,4.90
2018-08-25T08:55:16.912Z,8.23
2018-08-25T08:58:05.889Z,8.03
2018-08-25T09:01:03.013Z,6.80
2018-08-25T09:03:49.650Z,4.50
2018-08-25T09:06:33.414Z,8.00
2018-08-25T09:09:06.184Z,6.83
2018-08-25T09:11:40.924Z,6.03
2018-08-25T09:14:17.811Z,6.90
2018-08-25T09:16:56.258Z,6.07
2018-08-25T09:19:25.727Z,6.07
2018-08-25T09:21:53.867Z,4.93
2018-08-25T09:24:29.235Z,5.47
2018-08-25T09:26:58.388Z,9.67
2018-08-25T09:29:26.859Z,7.50
2018-08-25T09:32:23.455Z,5.40
2018-08-25T09:34:52.249Z,7.67
2018-08-25T09:37:36.321Z,5.70
2018-08-25T09:40:16.155Z,8.20
2018-08-25T09:42:46.267Z,5.43
2018-08-25T09:45:20.208Z,3.40
2018-08-25T09:47:51.299Z,6.77
2018-08-25T09:50:32.994Z,9.60
2018-08-25T09:53:31.972Z,6.67
2018-08-25T09:56:42.796Z,4.67
2018-08-25T10:01:04.763Z,3.70
2018-08-25T10:04:15.712Z,5.50
2018-08-25T10:06:49.077Z,7.40
2018-08-25T10:09:26.907Z,5.50
2018-08-25T10:11:59.751Z,8.33
2018-08-25T10:14:29.554Z,4.10
2018-08-25T10:17:01.651Z,4.63
2018-08-25T10:19:52.012Z,5.83
2018-08-25T10:22:37.189Z,4.10
2018-08-25T10:25:08.042Z,5.80
2018-08-25T10:27:37.235Z,4.03
2018-08-25T10:30:06.230Z,3.63
2018-08-25T10:32:34.375Z,3.97
2018-08-25T10:35:28.306Z,2.17
2018-08-25T10:38:09.946Z,2.07
2018-08-25T10:40:41.316Z,2.47
2018-08-25T10:43:25.035Z,3.10
2018-08-25T10:45:54.662Z,2.00
2018-08-25T10:48:22.774Z,3.50
2018-08-25T10:51:03.144Z,2.50
2018-08-25T10:56:55.800Z,3.10
2018-08-25T10:59:24.988Z,2.13
2018-08-25T11:01:55.353Z,1.40
2018-08-25T11:04:30.645Z,3.43
2018-08-25T11:07:00.818Z,3.50
2018-08-25T11:09:40.105Z,2.07
2018-08-25T11:12:17.649Z,1.70
2018-08-25T11:14:45.869Z,2.87
2018-08-25T11:17:15.621Z,1.10
2018-08-25T11:19:44.718Z,2.23
2018-08-25T11:22:23.207Z,2.80
2018-08-25T11:24:53.357Z,1.90
2018-08-25T11:27:25.485Z,4.10
2018-08-25T11:30:28.156Z,1.77
2018-08-25T11:33:12.033Z,1.57
2018-08-25T11:36:07.651Z,1.53
2018-08-25T11:38:54.648Z,1.47
2018-08-25T11:41:49.717Z,1.70
2018-08-25T11:44:30.482Z,1.17
2018-08-25T11:46:59.002Z,1.93
2018-08-25T11:49:31.559Z,3.47
2018-08-25T11:52:04.666Z,2.47
2018-08-25T11:54:33.689Z,1.00
2018-08-25T11:57:05.850Z,0.80
2018-08-25T12:00:08.443Z,1.20
2018-08-25T12:02:59.043Z,1.13
2018-08-25T12:05:31.333Z,1.70
2018-08-25T12:08:01.362Z,1.40
2018-08-25T12:10:36.560Z,2.43
2018-08-25T12:13:06.238Z,1.87
2018-08-25T12:16:01.351Z,1.20
2018-08-25T12:18:31.175Z,2.53
2018-08-25T12:21:01.837Z,1.00
2018-08-25T12:23:31.509Z,1.47
2018-08-25T12:26:23.716Z,2.47
2018-08-25T12:28:52.303Z,2.00
2018-08-25T12:32:03.762Z,1.43
2018-08-25T12:34:49.866Z,2.03
2018-08-25T12:37:33.790Z,2.27
2018-08-25T12:40:17.077Z,2.27
2018-08-25T12:42:53.255Z,1.23
2018-08-25T12:45:31.842Z,1.03
2018-08-25T12:48:00.254Z,1.20
2018-08-25T12:50:28.370Z,1.50
2018-08-25T12:53:00.249Z,1.73
2018-08-25T13:02:28.673Z,1.90
2018-08-25T13:04:57.694Z,2.03
2018-08-25T13:07:28.377Z,5.13
2018-08-25T13:09:57.785Z,1.33
2018-08-25T13:12:27.772Z,1.87
2018-08-25T13:15:18.305Z,1.43
2018-08-25T13:17:49.711Z,1.70
2018-08-25T13:20:35.095Z,2.17
2018-08-25T13:23:08.727Z,4.10
2018-08-25T13:25:37.075Z,2.10
2018-08-25T13:28:09.756Z,1.97
2018-08-25T13:30:39.276Z,1.63
2018-08-25T13:33:14.357Z,1.57
2018-08-25T13:35:48.772Z,1.77
2018-08-25T13:38:34.731Z,0.97
2018-08-25T13:41:08.482Z,1.70
2018-08-25T13:43:55.229Z,1.90
2018-08-25T13:46:50.458Z,1.67
2018-08-25T13:49:36.144Z,1.47
2018-08-25T13:52:24.085Z,1.73
2018-08-25T13:58:22.958Z,1.20
2018-08-25T14:01:03.528Z,4.80
2018-08-25T14:03:36.340Z,1.33
2018-08-25T14:06:09.467Z,1.03
2018-08-25T14:09:18.765Z,1.67
2018-08-25T14:12:30.723Z,1.03
2018-08-25T14:15:04.114Z,1.30
2018-08-25T14:18:08.746Z,1.50
2018-08-25T14:23:33.840Z,2.10
2018-08-25T14:26:03.027Z,1.83
2018-08-25T14:28:32.634Z,1.37
2018-08-25T14:31:25.590Z,2.50
2018-08-25T14:34:14.922Z,1.53
2018-08-25T14:36:59.961Z,1.70
2018-08-25T14:39:49.499Z,1.93
2018-08-25T14:42:21.397Z,4.03
2018-08-25T14:45:52.087Z,1.20
2018-08-25T14:48:38.803Z,2.70
2018-08-25T14:51:10.684Z,1.60
2018-08-25T14:53:50.791Z,1.47
2018-08-25T14:56:28.631Z,1.87
2018-08-25T14:59:01.154Z,1.77
2018-08-25T15:01:42.221Z,2.03
2018-08-25T15:04:15.406Z,2.33
2018-08-25T15:06:48.435Z,3.43
2018-08-25T15:09:18.246Z,2.17
2018-08-25T15:11:51.832Z,3.50
2018-08-25T15:14:22.553Z,3.37
2018-08-25T15:16:52.671Z,2.67
2018-08-25T15:19:36.730Z,1.67
2018-08-25T15:22:07.456Z,1.00
2018-08-25T15:24:49.531Z,2.60
2018-08-25T15:27:21.668Z,1.47
2018-08-25T15:29:54.244Z,4.00
2018-08-25T15:32:27.284Z,2.60
2018-08-25T15:35:09.361Z,1.93
2018-08-25T15:37:38.696Z,9.30
2018-08-25T15:40:22.426Z,2.33
2018-08-25T15:43:18.346Z,1.00
2018-08-25T15:46:04.584Z,1.50
2018-08-25T15:48:43.565Z,1.67
2018-08-25T15:51:14.747Z,1.20
2018-08-25T15:54:04.738Z,1.87
2018-08-25T15:56:53.174Z,1.70
2018-08-25T15:59:34.447Z,2.03
2018-08-25T16:02:11.060Z,1.30
2018-08-25T16:04:40.033Z,2.03
2018-08-25T16:07:09.943Z,1.63
2018-08-25T16:09:39.399Z,4.50
2018-08-25T16:12:22.177Z,1.17
2018-08-25T16:15:19.370Z,1.60
2018-08-25T16:17:57.000Z,4.60
2018-08-25T16:24:29.517Z,2.43
2018-08-25T16:30:56.603Z,1.63
2018-08-25T16:33:50.796Z,1.60
2018-08-25T16:36:56.313Z,3.77
2018-08-25T16:39:44.111Z,2.80
2018-08-25T16:42:17.267Z,1.30
2018-08-25T16:44:48.259Z,2.03
2018-08-25T16:47:19.655Z,2.27
2018-08-25T16:49:51.442Z,1.97
2018-08-25T16:52:43.576Z,2.17
2018-08-25T16:55:27.778Z,2.23
2018-08-25T16:57:59.441Z,1.77
2018-08-25T17:00:32.097Z,2.17
2018-08-25T17:03:15.651Z,1.77
2018-08-25T17:06:07.819Z,3.17
2018-08-25T17:08:43.621Z,1.70
2018-08-25T17:11:14.345Z,2.17
2018-08-25T17:13:51.438Z,2.33
2018-08-25T17:19:42.247Z,1.60
2018-08-25T17:22:12.539Z,2.57
2018-08-25T17:25:03.147Z,2.00
2018-08-25T17:27:55.486Z,2.03
2018-08-25T17:30:26.614Z,3.27
2018-08-25T17:33:29.929Z,3.10
2018-08-25T17:36:24.086Z,2.07
2018-08-25T17:39:11.646Z,3.90
2018-08-25T17:41:51.229Z,3.30
2018-08-25T17:47:29.091Z,2.80
2018-08-25T17:50:02.694Z,2.50
2018-08-25T17:52:36.506Z,2.70
2018-08-25T17:55:52.619Z,3.63
2018-08-25T18:01:49.431Z,1.70
2018-08-25T18:04:40.477Z,4.70
2018-08-25T18:07:24.453Z,1.90
2018-08-25T18:10:10.137Z,7.53
2018-08-25T18:12:48.311Z,2.23
2018-08-25T18:15:21.075Z,2.13
2018-08-25T18:17:54.989Z,3.53
2018-08-25T18:20:40.599Z,1.80
2018-08-25T18:23:16.366Z,1.83
2018-08-25T18:25:53.587Z,1.73
2018-08-25T18:28:35.807Z,2.30
2018-08-25T18:31:08.220Z,2.40
2018-08-25T18:33:42.739Z,2.40
2018-08-25T18:36:23.043Z,2.80
2018-08-25T18:39:12.315Z,3.63
2018-08-25T18:41:45.122Z,1.40
2018-08-25T18:44:46.297Z,1.77
2018-08-25T18:50:27.255Z,3.80
2018-08-25T18:53:17.353Z,4.40
2018-08-25T18:55:54.434Z,4.00
2018-08-25T19:01:14.320Z,2.67
2018-08-25T19:03:57.022Z,5.53
2018-08-25T19:06:33.489Z,4.03
2018-08-25T19:09:23.097Z,2.03
2018-08-25T19:12:04.937Z,1.60
2018-08-25T19:14:41.871Z,3.57
2018-08-25T19:17:18.124Z,2.60
2018-08-25T19:19:47.382Z,2.60
2018-08-25T19:22:19.330Z,2.23
2018-08-25T19:25:09.664Z,2.90
2018-08-25T19:27:42.863Z,3.73
2018-08-25T19:30:20.462Z,3.87
2018-08-25T19:32:56.532Z,10.00
2018-08-25T19:35:26.544Z,2.60
2018-08-25T19:38:25.555Z,3.03
2018-08-25T19:40:59.141Z,4.10
2018-08-25T19:43:35.425Z,4.67
2018-08-25T19:46:03.699Z,1.80
2018-08-25T19:48:38.385Z,1.90
2018-08-25T19:51:23.172Z,2.13
2018-08-25T19:54:06.599Z,4.87
2018-08-25T19:56:42.409Z,2.17
2018-08-25T19:59:21.686Z,3.10
2018-08-25T20:01:52.940Z,3.37
2018-08-25T20:04:24.089Z,3.43
2018-08-25T20:09:53.225Z,4.63
2018-08-25T20:12:26.123Z,2.77
2018-08-25T20:14:59.123Z,4.60
2018-08-25T20:17:36.060Z,2.60
2018-08-25T20:20:09.893Z,4.13
2018-08-25T20:22:42.653Z,5.10
2018-08-25T20:25:12.478Z,4.00
2018-08-25T20:27:45.216Z,3.83
2018-08-25T20:33:28.275Z,3.50
2018-08-25T20:35:58.837Z,3.13
2018-08-25T20:38:35.152Z,3.87
2018-08-25T20:41:09.967Z,2.80
2018-08-25T20:43:40.010Z,2.70
2018-08-25T20:46:10.717Z,2.80
2018-08-25T20:48:57.399Z,4.53
2018-08-25T20:52:04.696Z,4.27
2018-08-25T20:55:05.548Z,3.47
2018-08-25T20:57:38.957Z,4.20
2018-08-25T21:00:13.848Z,3.53
2018-08-25T21:02:44.585Z,3.27
2018-08-25T21:05:16.183Z,4.63
2018-08-25T21:08:27.831Z,4.27
2018-08-25T21:11:27.097Z,3.67
2018-08-25T21:13:59.339Z,3.97
2018-08-25T21:16:29.730Z,3.87
2018-08-25T21:19:05.027Z,3.07
2018-08-25T21:21:36.651Z,3.53
2018-08-25T21:24:13.300Z,2.60
2018-08-25T21:26:43.530Z,3.53
2018-08-25T21:29:12.719Z,3.67
2018-08-25T21:31:43.545Z,3.47
2018-08-25T21:34:14.142Z,4.00
2018-08-25T21:36:45.473Z,7.80
2018-08-25T21:39:18.381Z,3.77
2018-08-25T21:41:52.542Z,3.93
2018-08-25T21:44:23.288Z,3.63
2018-08-25T21:46:58.247Z,3.93
2018-08-25T21:49:27.757Z,4.50
2018-08-25T21:52:32.857Z,2.77
2018-08-25T21:55:34.257Z,2.27
2018-08-25T21:58:08.026Z,4.67
2018-08-25T22:00:45.563Z,3.00
2018-08-25T22:03:19.770Z,2.67
2018-08-25T22:05:50.799Z,2.60
2018-08-25T22:08:20.219Z,3.87
2018-08-25T22:14:01.013Z,4.50
2018-08-25T22:16:30.922Z,3.27
2018-08-25T22:19:00.190Z,4.93
2018-08-25T22:21:29.583Z,3.77
2018-08-25T22:23:58.369Z,3.43
2018-08-25T22:26:27.386Z,2.33
2018-08-25T22:28:57.424Z,2.47
2018-08-25T22:31:26.898Z,3.03
2018-08-25T22:34:29.848Z,2.70
2018-08-25T22:37:24.173Z,3.50
2018-08-25T22:40:28.554Z,5.00
2018-08-25T22:46:19.303Z,4.33
2018-08-25T22:48:49.899Z,4.63
2018-08-25T22:51:21.156Z,4.20
2018-08-25T22:53:51.362Z,4.27
2018-08-25T22:56:41.078Z,4.33
2018-08-25T22:59:10.744Z,3.97
2018-08-25T23:01:39.477Z,2.73
2018-08-25T23:04:07.672Z,3.33
2018-08-25T23:06:36.381Z,3.33
2018-08-25T23:09:08.965Z,3.00
2018-08-25T23:11:37.735Z,4.27
2018-08-25T23:14:08.996Z,5.13
2018-08-25T23:16:37.667Z,3.73
2018-08-25T23:19:07.662Z,3.70
2018-08-25T23:21:35.952Z,2.97
2018-08-25T23:24:06.518Z,3.60
2018-08-25T23:26:35.502Z,4.53
2018-08-25T23:29:05.525Z,3.60
2018-08-25T23:31:35.654Z,3.77
2018-08-25T23:34:12.523Z,5.43
2018-08-25T23:36:43.345Z,2.80
2018-08-25T23:39:18.632Z,3.47
2018-08-25T23:42:02.692Z,3.33
2018-08-25T23:44:32.013Z,2.67
2018-08-25T23:47:04.671Z,5.73
2018-08-25T23:49:33.922Z,2.57
2018-08-25T23:52:04.907Z,4.90
2018-08-25T23:54:35.199Z,3.57
2018-08-25T23:57:05.580Z,3.63
2018-08-25T23:59:35.831Z,5.20
